Time;durP1;ratioP1;P1;durP2;ratioP2;P2;SDS_P1;SDS_P2;PMS_P1;PMS_P2;Temp;Humidity;BMP_temperature;BMP_pressure;BME280_temperature;BME280_humidity;BME280_pressure;Samples;Min_cycle;Max_cycle;Signal;HPM_P1;HPM_P2
2021/11/16 00:00:50;;;;;;;2.45;2.25;;;;;;;;;;5074994;28;20012;-71
2021/11/16 00:03:17;;;;;;;2.78;2.28;;;;;;;;;;5074935;28;20036;-72
2021/11/16 00:05:45;;;;;;;3.90;2.40;;;;;;;;;;5074869;28;20419;-71
2021/11/16 00:08:12;;;;;;;3.45;2.40;;;;;;;;;;5073675;28;20397;-71
2021/11/16 00:10:41;;;;;;;2.75;2.40;;;;;;;;;;5074944;28;20031;-72
2021/11/16 00:13:11;;;;;;;2.70;2.20;;;;;;;;;;5074958;28;20028;-72
2021/11/16 00:15:42;;;;;;;2.67;2.47;;;;;;;;;;5074741;28;20107;-72
2021/11/16 00:18:10;;;;;;;4.13;2.72;;;;;;;;;;5074378;28;20107;-72
2021/11/16 00:20:43;;;;;;;2.88;2.58;;;;;;;;;;5074604;28;20484;-71
2021/11/16 00:23:17;;;;;;;4.15;2.85;;;;;;;;;;5073916;28;20024;-72
2021/11/16 00:25:45;;;;;;;2.63;2.42;;;;;;;;;;5073361;28;20033;-72
2021/11/16 00:28:12;;;;;;;4.38;2.50;;;;;;;;;;5073297;28;20031;-72
2021/11/16 00:30:40;;;;;;;2.92;2.38;;;;;;;;;;5073295;28;20029;-71
2021/11/16 00:33:07;;;;;;;3.17;2.28;;;;;;;;;;5074517;28;20020;-72
2021/11/16 00:35:40;;;;;;;2.33;2.15;;;;;;;;;;5073149;28;20020;-72
2021/11/16 00:38:08;;;;;;;2.78;2.42;;;;;;;;;;5074527;28;20423;-72
2021/11/16 00:40:36;;;;;;;3.60;2.40;;;;;;;;;;5074342;28;20102;-72
2021/11/16 00:43:07;;;;;;;2.75;2.10;;;;;;;;;;5074260;28;20025;-71
2021/11/16 00:45:35;;;;;;;3.80;2.30;;;;;;;;;;5073089;28;20485;-71
2021/11/16 00:48:02;;;;;;;2.65;2.42;;;;;;;;;;5072887;28;20052;-71
2021/11/16 00:50:29;;;;;;;3.90;2.70;;;;;;;;;;5074093;28;20473;-72
2021/11/16 00:52:56;;;;;;;3.40;2.80;;;;;;;;;;5072540;28;20016;-72
2021/11/16 00:55:23;;;;;;;4.28;2.80;;;;;;;;;;5072563;28;20127;-71
2021/11/16 00:57:51;;;;;;;3.42;2.42;;;;;;;;;;5073755;28;20023;-70
2021/11/16 01:00:18;;;;;;;3.45;3.15;;;;;;;;;;5073951;28;20021;-72
2021/11/16 01:02:45;;;;;;;2.67;2.47;;;;;;;;;;5073972;28;20481;-72
2021/11/16 01:05:13;;;;;;;3.08;2.75;;;;;;;;;;5073942;28;20016;-72
2021/11/16 01:07:42;;;;;;;2.60;2.38;;;;;;;;;;5073819;28;20481;-73
2021/11/16 01:10:11;;;;;;;3.58;2.70;;;;;;;;;;5073652;28;20489;-71
2021/11/16 01:12:39;;;;;;;2.58;2.42;;;;;;;;;;5073482;28;20400;-72
2021/11/16 01:15:07;;;;;;;2.78;2.40;;;;;;;;;;5073785;28;20019;-71
2021/11/16 01:17:35;;;;;;;2.90;2.60;;;;;;;;;;5072325;28;20037;-72
2021/11/16 01:20:02;;;;;;;3.47;2.47;;;;;;;;;;5073785;28;20027;-72
2021/11/16 01:22:30;;;;;;;3.10;2.45;;;;;;;;;;5073540;28;20426;-72
2021/11/16 01:24:57;;;;;;;3.17;2.60;;;;;;;;;;5073794;28;20047;-72
2021/11/16 01:27:26;;;;;;;5.00;2.40;;;;;;;;;;5072547;28;20028;-72
2021/11/16 01:29:54;;;;;;;3.45;2.20;;;;;;;;;;5072754;28;20031;-72
2021/11/16 01:32:28;;;;;;;3.50;2.13;;;;;;;;;;5073461;28;20072;-71
2021/11/16 01:34:55;;;;;;;4.63;2.40;;;;;;;;;;5075373;28;20016;-71
2021/11/16 01:37:24;;;;;;;5.15;2.55;;;;;;;;;;5077805;28;20389;-71
2021/11/16 01:39:52;;;;;;;3.22;2.42;;;;;;;;;;5076421;28;20033;-73
2021/11/16 01:42:22;;;;;;;3.67;2.78;;;;;;;;;;5077809;28;20031;-72
2021/11/16 01:44:50;;;;;;;2.78;2.47;;;;;;;;;;5077641;28;20028;-71
2021/11/16 01:47:17;;;;;;;5.18;2.65;;;;;;;;;;5077520;28;20393;-71
2021/11/16 01:49:45;;;;;;;4.65;2.35;;;;;;;;;;5077494;28;20020;-71
2021/11/16 01:52:12;;;;;;;2.90;2.30;;;;;;;;;;5077513;28;20074;-70
2021/11/16 01:54:39;;;;;;;2.75;2.30;;;;;;;;;;5077522;28;20032;-71
2021/11/16 01:57:07;;;;;;;3.38;2.53;;;;;;;;;;5077451;28;20024;-71
2021/11/16 01:59:38;;;;;;;3.03;2.47;;;;;;;;;;5077920;28;20492;-72
2021/11/16 02:02:09;;;;;;;2.47;2.10;;;;;;;;;;5077092;28;20484;-71
2021/11/16 02:04:36;;;;;;;3.50;2.13;;;;;;;;;;5077503;28;20050;-72
2021/11/16 02:07:03;;;;;;;2.40;2.20;;;;;;;;;;5077176;28;20025;-71
2021/11/16 02:09:30;;;;;;;2.53;1.85;;;;;;;;;;5076825;28;20032;-72
2021/11/16 02:11:57;;;;;;;2.55;2.35;;;;;;;;;;5076673;28;20608;-72
2021/11/16 02:14:25;;;;;;;3.83;2.15;;;;;;;;;;5076146;28;20401;-71
2021/11/16 02:16:52;;;;;;;3.13;2.00;;;;;;;;;;5075586;28;20028;-72
2021/11/16 02:19:20;;;;;;;2.78;2.30;;;;;;;;;;5076462;28;20560;-72
2021/11/16 02:21:48;;;;;;;2.65;2.15;;;;;;;;;;5075394;28;20035;-72
2021/11/16 02:24:15;;;;;;;3.90;2.17;;;;;;;;;;5075588;28;20392;-72
2021/11/16 02:26:42;;;;;;;2.95;2.40;;;;;;;;;;5076759;28;20032;-71
2021/11/16 02:29:10;;;;;;;3.40;2.00;;;;;;;;;;5076809;28;20100;-71
2021/11/16 02:31:37;;;;;;;2.80;2.15;;;;;;;;;;5075377;28;20029;-72
2021/11/16 02:34:05;;;;;;;4.13;2.25;;;;;;;;;;5075366;28;20024;-73
2021/11/16 02:36:34;;;;;;;3.60;2.30;;;;;;;;;;5076805;28;20032;-72
2021/11/16 02:39:01;;;;;;;3.13;2.30;;;;;;;;;;5076554;28;20103;-72
2021/11/16 02:41:31;;;;;;;4.55;2.78;;;;;;;;;;5075091;28;20024;-72
2021/11/16 02:44:03;;;;;;;2.75;2.55;;;;;;;;;;5076454;28;20051;-73
2021/11/16 02:46:30;;;;;;;3.42;2.70;;;;;;;;;;5074284;28;20021;-72
2021/11/16 02:48:58;;;;;;;4.00;2.30;;;;;;;;;;5076465;28;20021;-72
2021/11/16 02:51:25;;;;;;;2.55;2.35;;;;;;;;;;5076472;28;20074;-72
2021/11/16 02:53:52;;;;;;;4.40;2.38;;;;;;;;;;5075103;28;20078;-72
2021/11/16 02:56:20;;;;;;;2.65;2.40;;;;;;;;;;5076289;28;20074;-72
2021/11/16 02:58:47;;;;;;;5.45;2.80;;;;;;;;;;5074822;28;20032;-72
2021/11/16 03:01:16;;;;;;;3.08;2.20;;;;;;;;;;5076208;28;20027;-72
2021/11/16 03:03:43;;;;;;;2.95;2.42;;;;;;;;;;5076285;28;20520;-71
2021/11/16 03:06:12;;;;;;;3.58;2.20;;;;;;;;;;5074915;28;20028;-72
2021/11/16 03:08:39;;;;;;;2.05;1.90;;;;;;;;;;5074985;28;20112;-72
2021/11/16 03:11:08;;;;;;;2.55;2.35;;;;;;;;;;5076084;28;20048;-72
2021/11/16 03:13:39;;;;;;;2.65;2.33;;;;;;;;;;5075882;28;20040;-71
2021/11/16 03:16:11;;;;;;;2.83;2.47;;;;;;;;;;5075841;28;20099;-71
2021/11/16 03:18:45;;;;;;;5.60;2.50;;;;;;;;;;5074271;28;20052;-71
2021/11/16 03:21:12;;;;;;;4.47;2.50;;;;;;;;;;5074727;28;20021;-73
2021/11/16 03:23:41;;;;;;;2.55;2.35;;;;;;;;;;5075909;28;20019;-71
2021/11/16 03:26:08;;;;;;;2.42;2.22;;;;;;;;;;5074353;28;20025;-71
2021/11/16 03:28:38;;;;;;;3.85;2.30;;;;;;;;;;5075768;28;20496;-73
2021/11/16 03:31:17;;;;;;;4.22;2.72;;;;;;;;;;5073851;28;20028;-72
2021/11/16 03:33:45;;;;;;;3.10;2.50;;;;;;;;;;5075768;28;20020;-73
2021/11/16 03:36:12;;;;;;;3.55;2.60;;;;;;;;;;5075487;28;20118;-72
2021/11/16 03:38:40;;;;;;;3.85;2.50;;;;;;;;;;5074939;28;20021;-72
2021/11/16 03:41:08;;;;;;;2.83;2.58;;;;;;;;;;5073790;28;20485;-72
2021/11/16 03:43:35;;;;;;;3.38;2.40;;;;;;;;;;5074059;28;20020;-73
2021/11/16 03:46:02;;;;;;;3.47;2.60;;;;;;;;;;5075142;28;20041;-72
2021/11/16 03:48:29;;;;;;;4.13;2.30;;;;;;;;;;5074928;28;20060;-72
2021/11/16 03:50:58;;;;;;;3.80;2.28;;;;;;;;;;5073816;28;20052;-73
2021/11/16 03:53:25;;;;;;;2.30;2.08;;;;;;;;;;5075186;28;20025;-72
2021/11/16 03:55:52;;;;;;;3.10;2.20;;;;;;;;;;5075236;28;20024;-72
2021/11/16 03:58:21;;;;;;;5.18;2.20;;;;;;;;;;5073093;28;20082;-73
2021/11/16 04:00:50;;;;;;;2.60;2.30;;;;;;;;;;5074963;28;20017;-73
2021/11/16 04:03:17;;;;;;;2.40;2.20;;;;;;;;;;5074959;28;20021;-72
2021/11/16 04:05:44;;;;;;;3.65;2.30;;;;;;;;;;5073571;28;20021;-72
2021/11/16 04:08:11;;;;;;;2.63;2.47;;;;;;;;;;5074996;28;20043;-72
2021/11/16 04:10:39;;;;;;;2.83;2.40;;;;;;;;;;5074976;28;20496;-70
2021/11/16 04:13:07;;;;;;;3.88;2.70;;;;;;;;;;5074910;28;20053;-72
2021/11/16 04:15:35;;;;;;;4.05;3.08;;;;;;;;;;5075311;28;20031;-73
2021/11/16 04:18:03;;;;;;;3.90;2.70;;;;;;;;;;5073025;28;20052;-73
2021/11/16 04:20:34;;;;;;;2.70;2.50;;;;;;;;;;5074593;28;20021;-73
2021/11/16 04:23:03;;;;;;;3.08;2.40;;;;;;;;;;5073341;28;20025;-73
2021/11/16 04:25:32;;;;;;;3.85;2.90;;;;;;;;;;5074507;28;20078;-73
2021/11/16 04:27:59;;;;;;;2.53;2.33;;;;;;;;;;5074513;28;20062;-73
2021/11/16 04:30:28;;;;;;;2.60;2.40;;;;;;;;;;5074516;28;20021;-74
2021/11/16 04:32:56;;;;;;;4.88;2.80;;;;;;;;;;5073233;28;20042;-73
2021/11/16 04:35:23;;;;;;;3.67;2.70;;;;;;;;;;5073150;28;20481;-73
2021/11/16 04:37:51;;;;;;;2.55;2.20;;;;;;;;;;5074600;28;20107;-73
2021/11/16 04:40:26;;;;;;;3.28;2.60;;;;;;;;;;5074210;28;20029;-72
2021/11/16 04:42:56;;;;;;;4.40;2.75;;;;;;;;;;5074671;28;20021;-73
2021/11/16 04:45:24;;;;;;;2.65;2.35;;;;;;;;;;5074420;28;20066;-74
2021/11/16 04:50:36;;;;;;;3.50;2.90;;;;;;;;;;5074042;28;20493;-72
2021/11/16 04:53:35;;;;;;;3.30;2.60;;;;;;;;;;5073988;28;20024;-73
2021/11/16 05:04:18;;;;;;;3.30;3.00;;;;;;;;;;5074129;28;20063;-73
2021/11/16 05:06:45;;;;;;;2.65;2.45;;;;;;;;;;5073815;28;20025;-73
2021/11/16 05:09:16;;;;;;;3.00;2.63;;;;;;;;;;5072318;28;20493;-72
2021/11/16 05:11:43;;;;;;;4.43;2.42;;;;;;;;;;5073911;28;20101;-72
2021/11/16 05:14:10;;;;;;;3.60;2.35;;;;;;;;;;5073618;28;20028;-73
2021/11/16 05:16:37;;;;;;;2.90;2.53;;;;;;;;;;5074168;28;20016;-72
2021/11/16 05:19:04;;;;;;;4.40;2.60;;;;;;;;;;5073587;28;20040;-72
2021/11/16 05:21:35;;;;;;;3.08;2.40;;;;;;;;;;5073715;28;20511;-72
2021/11/16 05:24:02;;;;;;;4.22;2.55;;;;;;;;;;5072278;28;20017;-73
2021/11/16 05:26:30;;;;;;;4.30;2.35;;;;;;;;;;5072507;28;20020;-73
2021/11/16 05:28:58;;;;;;;3.53;2.58;;;;;;;;;;5073703;28;20020;-71
2021/11/16 05:31:26;;;;;;;4.32;3.03;;;;;;;;;;5072438;28;20024;-72
2021/11/16 05:33:54;;;;;;;2.90;2.30;;;;;;;;;;5072213;28;20033;-72
2021/11/16 05:36:22;;;;;;;4.88;2.60;;;;;;;;;;5073732;28;20001;-72
2021/11/16 05:38:49;;;;;;;3.92;3.10;;;;;;;;;;5071790;28;20047;-73
2021/11/16 05:41:19;;;;;;;4.93;3.47;;;;;;;;;;5073487;28;20039;-72
2021/11/16 05:43:47;;;;;;;5.05;3.03;;;;;;;;;;5073730;28;20070;-72
2021/11/16 05:46:23;;;;;;;4.47;3.08;;;;;;;;;;5073223;28;20025;-73
2021/11/16 05:48:54;;;;;;;4.97;3.20;;;;;;;;;;5072264;28;20107;-73
2021/11/16 05:51:23;;;;;;;3.22;2.83;;;;;;;;;;5072867;28;20032;-72
2021/11/16 05:53:57;;;;;;;3.15;2.72;;;;;;;;;;5071291;28;20082;-72
2021/11/16 05:56:26;;;;;;;3.78;3.30;;;;;;;;;;5071575;28;20051;-72
2021/11/16 05:58:54;;;;;;;2.95;2.60;;;;;;;;;;5072677;28;20469;-73
2021/11/16 06:01:25;;;;;;;4.13;2.30;;;;;;;;;;5073202;28;20067;-72
2021/11/16 06:03:52;;;;;;;3.45;2.53;;;;;;;;;;5071700;28;20029;-72
2021/11/16 06:06:20;;;;;;;3.85;2.50;;;;;;;;;;5073074;28;20356;-73
2021/11/16 06:08:48;;;;;;;2.67;2.13;;;;;;;;;;5071531;28;20112;-72
2021/11/16 06:11:17;;;;;;;5.68;3.05;;;;;;;;;;5073436;28;20427;-72
2021/11/16 06:13:45;;;;;;;3.92;2.90;;;;;;;;;;5073016;28;20074;-73
2021/11/16 06:16:12;;;;;;;7.78;3.58;;;;;;;;;;5072921;28;20025;-72
2021/11/16 06:18:42;;;;;;;3.30;2.67;;;;;;;;;;5072905;28;20080;-73
2021/11/16 06:21:11;;;;;;;4.22;2.53;;;;;;;;;;5073456;28;20033;-73
2021/11/16 06:23:38;;;;;;;4.00;2.70;;;;;;;;;;5075647;28;20025;-74
2021/11/16 06:26:06;;;;;;;3.15;2.83;;;;;;;;;;5077010;28;20016;-73
2021/11/16 06:28:34;;;;;;;4.38;2.78;;;;;;;;;;5076594;28;20029;-73
2021/11/16 06:31:01;;;;;;;3.08;2.83;;;;;;;;;;5075623;28;20043;-73
2021/11/16 06:33:28;;;;;;;3.88;3.00;;;;;;;;;;5075315;28;20032;-74
2021/11/16 06:35:55;;;;;;;5.20;2.90;;;;;;;;;;5075163;28;20024;-74
2021/11/16 06:38:23;;;;;;;4.85;2.83;;;;;;;;;;5076716;28;20028;-73
2021/11/16 06:40:50;;;;;;;5.32;3.00;;;;;;;;;;5076648;28;20442;-74
2021/11/16 06:43:24;;;;;;;3.63;2.55;;;;;;;;;;5075254;28;20052;-73
2021/11/16 06:45:55;;;;;;;5.22;3.10;;;;;;;;;;5076480;28;20058;-74
2021/11/16 06:48:23;;;;;;;3.35;2.88;;;;;;;;;;5076460;28;20017;-73
2021/11/16 06:50:51;;;;;;;4.32;2.85;;;;;;;;;;5075047;28;20035;-73
2021/11/16 06:53:33;;;;;;;3.30;2.70;;;;;;;;;;5075118;28;20059;-74
2021/11/16 06:56:01;;;;;;;4.60;2.70;;;;;;;;;;5076203;28;20086;-74
2021/11/16 06:58:28;;;;;;;3.80;3.08;;;;;;;;;;5075970;28;20024;-74
2021/11/16 07:00:56;;;;;;;4.93;2.83;;;;;;;;;;5074617;28;20020;-72
2021/11/16 07:03:24;;;;;;;5.00;3.03;;;;;;;;;;5075724;28;20024;-74
2021/11/16 07:05:53;;;;;;;3.20;2.75;;;;;;;;;;5074441;28;20021;-73
2021/11/16 07:08:41;;;;;;;4.10;2.80;;;;;;;;;;5074807;28;20029;-76
2021/11/16 07:11:09;;;;;;;5.13;3.13;;;;;;;;;;5074597;28;20032;-71
2021/11/16 07:13:39;;;;;;;3.97;3.05;;;;;;;;;;5074656;28;20473;-74
2021/11/16 07:16:15;;;;;;;2.95;2.70;;;;;;;;;;5076159;28;20078;-74
2021/11/16 07:18:50;;;;;;;5.53;2.83;;;;;;;;;;5074488;28;20101;-74
2021/11/16 07:21:18;;;;;;;5.15;2.90;;;;;;;;;;5074774;28;20029;-74
2021/11/16 07:23:45;;;;;;;5.50;3.03;;;;;;;;;;5074551;28;20020;-74
2021/11/16 07:26:13;;;;;;;5.05;3.20;;;;;;;;;;5075736;28;20095;-75
2021/11/16 07:28:47;;;;;;;5.78;3.25;;;;;;;;;;5074185;28;20029;-75
2021/11/16 07:31:19;;;;;;;5.57;2.90;;;;;;;;;;5075671;28;20095;-75
2021/11/16 07:33:46;;;;;;;7.88;3.20;;;;;;;;;;5074176;28;20025;-74
2021/11/16 07:36:16;;;;;;;4.13;3.10;;;;;;;;;;5073958;28;20020;-75
2021/11/16 07:38:48;;;;;;;3.50;3.20;;;;;;;;;;5075520;28;20035;-75
2021/11/16 07:41:24;;;;;;;5.68;3.40;;;;;;;;;;5074412;28;20024;-76
2021/11/16 07:43:52;;;;;;;5.50;3.83;;;;;;;;;;5073835;28;20155;-75
2021/11/16 07:46:20;;;;;;;5.43;4.10;;;;;;;;;;5073864;28;20362;-74
2021/11/16 07:48:47;;;;;;;5.57;3.20;;;;;;;;;;5073754;28;20027;-75
2021/11/16 07:51:16;;;;;;;4.57;3.70;;;;;;;;;;5074226;28;20492;-76
2021/11/16 07:53:47;;;;;;;3.75;2.70;;;;;;;;;;5073668;28;20104;-75
2021/11/16 07:56:15;;;;;;;5.32;3.88;;;;;;;;;;5073976;28;20028;-75
2021/11/16 07:58:42;;;;;;;4.40;2.50;;;;;;;;;;5073201;28;20020;-74
2021/11/16 08:01:15;;;;;;;3.63;2.80;;;;;;;;;;5075206;28;20040;-75
2021/11/16 08:04:05;;;;;;;6.00;3.40;;;;;;;;;;5074999;28;20023;-74
2021/11/16 08:06:38;;;;;;;5.10;3.37;;;;;;;;;;5073644;28;20777;-74
2021/11/16 08:09:22;;;;;;;5.65;3.78;;;;;;;;;;5073522;28;20314;-74
2021/11/16 08:12:04;;;;;;;4.22;3.22;;;;;;;;;;5074833;28;20037;-75
2021/11/16 08:14:31;;;;;;;4.18;2.85;;;;;;;;;;5073702;28;20400;-74
2021/11/16 08:17:00;;;;;;;4.32;3.00;;;;;;;;;;5073276;28;20025;-75
2021/11/16 08:19:28;;;;;;;5.65;3.10;;;;;;;;;;5074333;28;20047;-74
2021/11/16 08:21:56;;;;;;;5.53;3.63;;;;;;;;;;5074409;28;20016;-74
2021/11/16 08:24:25;;;;;;;5.45;3.10;;;;;;;;;;5072907;28;20059;-74
2021/11/16 08:26:53;;;;;;;7.05;3.42;;;;;;;;;;5073925;28;20017;-73
2021/11/16 08:29:32;;;;;;;3.80;2.72;;;;;;;;;;5073637;28;20420;-73
2021/11/16 08:32:08;;;;;;;3.90;2.90;;;;;;;;;;5072357;28;20032;-74
2021/11/16 08:34:36;;;;;;;4.97;3.55;;;;;;;;;;5072569;28;20501;-75
2021/11/16 08:37:06;;;;;;;7.28;3.30;;;;;;;;;;5072532;28;20021;-72
2021/11/16 08:39:35;;;;;;;3.63;2.65;;;;;;;;;;5073674;28;20025;-72
2021/11/16 08:42:08;;;;;;;5.25;3.15;;;;;;;;;;5072381;28;20016;-72
2021/11/16 08:44:47;;;;;;;4.38;2.75;;;17.10;99.90;;;;;;5071808;28;20028;-72
2021/11/16 08:47:15;;;;;;;4.25;2.47;;;17.00;96.20;;;;;;5072545;28;20480;-72
2021/11/16 08:49:45;;;;;;;2.65;2.45;;;17.00;96.00;;;;;;5073639;28;20091;-72
2021/11/16 08:52:18;;;;;;;6.80;3.42;;;16.90;96.40;;;;;;5073624;28;20017;-71
2021/11/16 08:55:00;;;;;;;4.70;2.92;;;16.90;96.40;;;;;;5073894;28;20056;-71
2021/11/16 08:57:30;;;;;;;4.80;2.30;;;16.80;96.20;;;;;;5072283;28;20021;-71
2021/11/16 08:59:58;;;;;;;3.60;2.92;;;16.80;95.90;;;;;;5073358;28;20052;-71
2021/11/16 09:02:27;;;;;;;6.30;3.53;;;16.80;96.20;;;;;;5073457;28;20028;-72
2021/11/16 09:04:55;;;;;;;4.78;2.70;;;16.70;95.90;;;;;;5072232;28;20052;-72
2021/11/16 09:07:31;;;;;;;4.30;2.60;;;16.70;96.10;;;;;;5072280;28;20135;-71
2021/11/16 09:10:01;;;;;;;5.05;3.40;;;16.70;96.30;;;;;;5072307;28;20370;-72
2021/11/16 09:12:40;;;;;;;5.35;3.47;;;16.70;96.80;;;;;;5073596;28;20053;-71
2021/11/16 09:15:10;;;;;;;3.55;3.00;;;16.60;96.60;;;;;;5073525;28;20086;-72
2021/11/16 09:17:39;;;;;;;5.70;3.30;;;16.50;96.70;;;;;;5073339;28;20047;-71
2021/11/16 09:20:26;;;;;;;5.15;3.10;;;16.60;96.40;;;;;;5072174;28;20119;-71
2021/11/16 09:22:55;;;;;;;4.13;2.80;;;16.50;95.90;;;;;;5072032;28;20021;-72
2021/11/16 09:25:24;;;;;;;6.28;3.20;;;16.50;96.10;;;;;;5073509;28;20024;-72
2021/11/16 09:28:05;;;;;;;5.90;3.22;;;16.50;96.20;;;;;;5073480;28;20024;-73
2021/11/16 09:30:41;;;;;;;5.88;3.03;;;16.50;95.60;;;;;;5073214;28;20023;-73
2021/11/16 09:33:19;;;;;;;4.90;3.10;;;16.50;95.80;;;;;;5071875;28;20039;-72
2021/11/16 09:36:01;;;;;;;3.42;3.10;;;16.40;96.20;;;;;;5072316;28;20469;-73
2021/11/16 09:38:54;;;;;;;6.63;3.55;;;16.40;96.40;;;;;;5073512;28;20017;-75
2021/11/16 09:41:55;;;;;;;4.53;3.22;;;16.40;96.30;;;;;;5073379;28;20020;-73
2021/11/16 09:44:26;;;;;;;5.35;3.00;;;16.40;96.70;;;;;;5065776;28;20119;-71
2021/11/16 09:47:09;;;;;;;5.00;3.28;;;16.30;96.50;;;;;;5073233;28;20097;-73
2021/11/16 09:49:39;;;;;;;5.20;2.88;;;16.30;96.90;;;;;;5073221;28;20541;-72
2021/11/16 09:52:18;;;;;;;5.97;3.17;;;16.30;96.80;;;;;;5073158;28;20052;-72
2021/11/16 09:54:56;;;;;;;5.15;3.38;;;16.20;96.70;;;;;;5072970;28;20477;-73
2021/11/16 09:57:34;;;;;;;5.72;3.35;;;16.50;96.50;;;;;;5077268;28;20028;-73
2021/11/16 10:00:10;;;;;;;6.80;3.50;;;16.10;96.50;;;;;;5075727;28;20024;-72
2021/11/16 10:02:40;;;;;;;3.80;3.03;;;16.10;96.20;;;;;;5076961;28;20019;-72
2021/11/16 10:05:21;;;;;;;7.50;3.60;;;16.10;96.50;;;;;;5076878;28;20070;-71
2021/11/16 10:08:01;;;;;;;8.52;3.65;;;16.10;97.10;;;;;;5077179;28;20366;-70
2021/11/16 10:10:36;;;;;;;6.60;3.10;;;16.10;96.80;;;;;;5077069;28;20067;-71
2021/11/16 10:13:14;;;;;;;5.57;3.15;;;16.10;97.50;;;;;;5076900;28;20086;-71
2021/11/16 10:15:45;;;;;;;6.43;3.50;;;15.90;97.40;;;;;;5076775;28;20028;-71
2021/11/16 10:18:15;;;;;;;4.97;2.90;;;16.00;97.30;;;;;;5076393;28;20120;-71
2021/11/16 10:20:46;;;;;;;3.63;3.33;;;15.90;97.00;;;;;;5075325;28;20025;-71
2021/11/16 10:23:36;;;;;;;3.53;3.20;;;15.90;97.30;;;;;;5076600;28;20099;-72
2021/11/16 10:26:05;;;;;;;5.00;3.40;;;15.80;97.20;;;;;;5076629;28;20396;-72
2021/11/16 10:28:34;;;;;;;5.05;2.80;;;15.80;96.80;;;;;;5076661;28;20056;-72
2021/11/16 10:31:03;;;;;;;5.90;3.10;;;15.80;96.50;;;;;;5076361;28;20055;-72
2021/11/16 10:33:37;;;;;;;6.28;3.55;;;15.70;96.10;;;;;;5076444;28;20048;-73
2021/11/16 10:36:14;;;;;;;3.55;3.00;;;15.70;96.40;;;;;;5075322;28;20056;-72
2021/11/16 10:38:49;;;;;;;3.85;3.13;;;15.60;96.40;;;;;;5075129;28;20028;-71
2021/11/16 10:41:26;;;;;;;9.82;3.30;;;15.60;96.10;;;;;;5076426;28;20021;-72
2021/11/16 10:44:14;;;;;;;8.20;2.80;;;15.60;96.60;;;;;;5074882;28;20115;-72
2021/11/16 10:46:45;;;;;;;3.08;2.65;;;15.60;96.50;;;;;;5076023;28;20020;-72
2021/11/16 10:49:16;;;;;;;4.97;3.03;;;15.50;96.60;;;;;;5076130;28;20456;-72
2021/11/16 10:51:48;;;;;;;3.20;2.85;;;15.60;96.90;;;;;;5076030;28;20021;-72
2021/11/16 10:54:17;;;;;;;2.95;2.60;;;15.50;96.90;;;;;;5076004;28;20028;-72
2021/11/16 10:56:45;;;;;;;4.22;2.80;;;15.40;96.80;;;;;;5075962;28;20017;-72
2021/11/16 10:59:20;;;;;;;4.50;3.28;;;15.50;96.80;;;;;;5075893;28;20069;-72
2021/11/16 11:01:50;;;;;;;5.22;2.97;;;15.50;96.60;;;;;;5076078;28;20017;-71
2021/11/16 11:04:41;;;;;;;3.65;3.30;;;15.40;96.60;;;;;;5075930;28;20021;-72
2021/11/16 11:07:13;;;;;;;4.47;2.97;;;15.40;97.10;;;;;;5073891;28;20036;-72
2021/11/16 11:09:41;;;;;;;3.63;2.80;;;15.40;97.10;;;;;;5075832;28;20111;-72
2021/11/16 11:12:32;;;;;;;6.90;3.33;;;15.30;96.80;;;;;;5074439;28;20507;-73
2021/11/16 11:15:00;;;;;;;3.85;3.00;;;15.30;96.70;;;;;;5075594;28;20027;-73
2021/11/16 11:17:36;;;;;;;4.80;3.30;;;15.30;97.20;;;;;;5075283;28;20044;-70
2021/11/16 11:20:16;;;;;;;4.07;3.67;;;15.30;97.30;;;;;;5074191;28;20036;-71
2021/11/16 11:22:45;;;;;;;4.28;3.38;;;15.20;97.50;;;;;;5074407;28;20472;-71
2021/11/16 11:28:02;;;;;;;3.35;3.05;;;15.20;97.50;;;;;;5075171;28;20017;-72
2021/11/16 11:30:33;;;;;;;3.83;3.05;;;15.20;98.40;;;;;;5074970;28;20020;-70
2021/11/16 11:33:01;;;;;;;3.60;3.00;;;15.10;98.80;;;;;;5074985;28;20074;-70
2021/11/16 11:35:30;;;;;;;4.22;2.72;;;15.00;99.00;;;;;;5075022;28;20050;-71
2021/11/16 11:38:09;;;;;;;6.05;2.97;;;15.00;99.30;;;;;;5075228;28;20021;-71
2021/11/16 11:40:40;;;;;;;4.07;2.95;;;15.00;98.60;;;;;;5073834;28;20024;-71
2021/11/16 11:43:11;;;;;;;3.20;2.80;;;15.00;98.40;;;;;;5073727;28;20028;-71
2021/11/16 11:45:41;;;;;;;6.10;3.28;;;15.00;98.70;;;;;;5075072;28;20056;-71
2021/11/16 11:48:12;;;;;;;7.03;3.50;;;15.00;98.70;;;;;;5074976;28;20016;-71
2021/11/16 11:50:53;;;;;;;5.35;3.45;;;15.00;99.10;;;;;;5074907;28;20113;-71
2021/11/16 11:53:32;;;;;;;5.22;3.25;;;15.00;99.40;;;;;;5074721;28;20090;-72
2021/11/16 11:56:10;;;;;;;4.35;3.28;;;14.90;99.70;;;;;;5074587;28;20027;-72
2021/11/16 11:58:42;;;;;;;3.40;3.10;;;14.90;99.90;;;;;;5074778;28;20024;-72
2021/11/16 12:01:16;;;;;;;5.53;3.75;;;14.90;99.80;;;;;;5074482;28;20020;-72
2021/11/16 12:03:46;;;;;;;5.28;3.85;;;14.90;99.90;;;;;;5074266;28;20023;-72
2021/11/16 12:06:13;;;;;;;4.60;3.45;;;14.90;99.90;;;;;;5074872;28;20037;-72
2021/11/16 12:08:41;;;;;;;6.55;3.95;;;14.80;99.90;;;;;;5074256;28;20108;-72
2021/11/16 12:11:11;;;;;;;3.63;3.33;;;14.70;99.90;;;;;;5073207;28;20020;-73
2021/11/16 12:13:39;;;;;;;5.90;4.13;;;14.80;99.90;;;;;;5074366;28;20059;-72
2021/11/16 12:16:24;;;;;;;5.15;3.85;;;14.70;99.90;;;;;;5074208;28;20032;-72
2021/11/16 12:19:12;;;;;;;7.68;3.60;;;14.80;99.90;;;;;;5073411;28;20045;-71
2021/11/16 12:21:43;;;;;;;5.70;3.60;;;14.80;99.90;;;;;;5072952;28;20549;-71
2021/11/16 12:24:29;;;;;;;7.20;4.00;;;14.90;99.90;;;;;;5072881;28;20051;-71
2021/11/16 12:27:04;;;;;;;5.22;3.30;;;15.00;99.90;;;;;;5074273;28;20029;-72
2021/11/16 12:29:34;;;;;;;4.70;3.35;;;15.00;99.90;;;;;;5074135;28;20099;-72
2021/11/16 12:32:24;;;;;;;6.05;3.20;;;15.00;99.90;;;;;;5074670;28;20016;-72
2021/11/16 12:34:57;;;;;;;3.40;3.05;;;15.00;99.90;;;;;;5073028;28;20040;-72
2021/11/16 12:37:46;;;;;;;5.30;3.08;;;14.90;99.90;;;;;;5072841;28;20351;-73
2021/11/16 12:40:24;;;;;;;5.60;3.17;;;14.90;99.90;;;;;;5073916;28;20020;-72
2021/11/16 12:43:30;;;;;;;3.25;2.95;;;14.80;99.90;;;;;;5072847;28;20028;-72
2021/11/16 12:46:02;;;;;;;3.30;3.00;;;14.70;99.90;;;;;;5012273;28;20483;-72
2021/11/16 12:48:52;;;;;;;6.18;3.40;;;14.70;99.90;;;;;;5012110;28;20018;-72
2021/11/16 12:51:20;;;;;;;6.00;3.10;;;14.70;99.90;;;;;;5047363;28;20029;-72
2021/11/16 12:54:02;;;;;;;4.93;3.45;;;14.80;99.90;;;;;;5073649;28;20095;-72
2021/11/16 12:56:42;;;;;;;6.47;3.63;;;14.80;99.90;;;;;;5072387;28;20115;-72
2021/11/16 12:59:18;;;;;;;6.18;3.38;;;14.80;99.90;;;;;;5072137;28;20031;-72
2021/11/16 13:01:47;;;;;;;5.10;4.00;;;14.90;99.90;;;;;;5073673;28;20095;-72
2021/11/16 13:04:36;;;;;;;4.07;3.60;;;14.90;99.90;;;;;;5073505;28;20020;-72
2021/11/16 13:07:30;;;;;;;6.75;4.10;;;15.00;99.90;;;;;;5073423;28;20016;-71
2021/11/16 13:10:02;;;;;;;5.25;4.00;;;15.10;99.90;;;;;;5073267;28;20427;-72
2021/11/16 13:12:54;;;;;;;3.83;3.35;;;15.30;99.90;;;;;;5073351;28;20529;-72
2021/11/16 13:15:27;;;;;;;3.90;3.50;;;15.40;99.90;;;;;;5073626;28;20078;-73
2021/11/16 13:18:05;;;;;;;5.95;3.40;;;15.50;99.90;;;;;;5073008;28;20128;-72
2021/11/16 13:20:32;;;;;;;4.07;3.45;;;15.50;99.90;;;;;;5071927;28;20565;-71
2021/11/16 13:23:28;;;;;;;6.07;3.65;;;15.60;99.90;;;;;;5073327;28;20025;-72
2021/11/16 13:26:08;;;;;;;6.45;4.10;;;15.60;99.90;;;;;;5072978;28;20029;-72
2021/11/16 13:31:09;;;;;;;4.00;3.60;;;15.70;99.90;;;;;;5073332;28;20103;-72
2021/11/16 13:33:58;;;;;;;4.53;3.30;;;15.80;99.90;;;;;;5071982;28;20024;-72
2021/11/16 13:36:36;;;;;;;5.05;3.60;;;15.80;99.90;;;;;;5073122;28;20094;-71
2021/11/16 13:39:10;;;;;;;5.05;3.50;;;15.80;99.90;;;;;;5073373;28;20385;-71
2021/11/16 13:41:55;;;;;;;6.07;3.78;;;15.70;99.90;;;;;;5073303;28;20093;-70
2021/11/16 13:44:40;;;;;;;3.75;3.40;;;15.60;99.90;;;;;;5071795;28;20445;-70
2021/11/16 13:47:26;;;;;;;4.30;3.30;;;15.60;99.90;;;;;;5072985;28;20419;-71
2021/11/16 13:49:59;;;;;;;4.32;3.75;;;15.60;99.90;;;;;;5072969;28;20031;-71
2021/11/16 13:52:28;;;;;;;4.90;3.97;;;15.60;99.90;;;;;;5071951;28;20025;-71
2021/11/16 13:55:00;;;;;;;5.63;3.80;;;15.50;99.90;;;;;;5072008;28;20077;-72
2021/11/16 13:57:31;;;;;;;6.63;4.25;;;15.60;99.90;;;;;;5073430;28;20028;-72
2021/11/16 14:00:09;;;;;;;7.47;4.25;;;15.60;99.90;;;;;;5071668;28;20021;-72
2021/11/16 14:02:52;;;;;;;4.35;3.78;;;15.60;99.90;;;;;;5073033;28;20100;-72
2021/11/16 14:05:22;;;;;;;5.30;3.92;;;15.50;99.90;;;;;;5072936;28;20024;-71
2021/11/16 14:08:08;;;;;;;6.32;4.70;;;15.50;99.90;;;;;;5073384;28;20381;-72
2021/11/16 14:10:41;;;;;;;5.53;3.83;;;15.40;99.90;;;;;;5072900;28;20059;-71
2021/11/16 14:13:21;;;;;;;7.30;4.22;;;15.40;99.90;;;;;;5071688;28;20027;-71
2021/11/16 14:15:59;;;;;;;4.57;3.80;;;15.40;99.90;;;;;;5072757;28;20024;-72
2021/11/16 14:18:26;;;;;;;4.25;3.55;;;15.40;99.90;;;;;;5071386;28;20040;-71
2021/11/16 14:21:03;;;;;;;5.20;4.00;;;15.40;99.90;;;;;;5072784;28;20024;-72
2021/11/16 14:23:35;;;;;;;4.40;4.00;;;15.40;99.90;;;;;;5072938;28;20020;-72
2021/11/16 14:26:09;;;;;;;4.10;3.80;;;15.40;99.90;;;;;;5072798;28;20017;-72
2021/11/16 14:28:41;;;;;;;4.80;3.92;;;15.40;99.90;;;;;;5072827;28;20048;-72
2021/11/16 14:31:24;;;;;;;5.60;3.90;;;15.40;99.90;;;;;;5072754;28;20023;-71
2021/11/16 14:34:09;;;;;;;6.68;4.32;;;15.30;99.90;;;;;;5072869;28;20035;-72
2021/11/16 14:36:40;;;;;;;6.15;3.95;;;15.10;99.90;;;;;;5071502;28;20028;-71